PBD157 UUWW-URKK
Flight info
| Callsign | PBD157 |
|---|---|
| Flight time | 3h 28m |
| Altitude | 35000 |
| Route | N0450F350 TOGMO M56 ABAGI B105 NIMTA/K0841F360 B105 NATIT DCT MOLED N50 LIDUS G242 ZG DCT ITAKA DCT OBBUD DCT AMKOL DCT GOTIK DCT MEMZA DCT VENFO DCT PROZR DCT MOBIT B949 SM |
| Aircraft | B738/M-VGDW/C |
Departure
| Time | 2026-04-29 17:51 |
|---|---|
| Airport | Vnukovo International Airport (UUWW) |
Arrival
| Time | 2026-04-29 21:19 |
|---|---|
| Airport | Krasnodar Pashkovsky International Airport (URKK) |
| Time | Latitude | Longitude | Altitude | Speed | Heading |
|---|---|---|---|---|---|
| 2026-04-29 17:26 | 55.60151 | 37.28151 | 698 ft | 0 kts | 36° |
| 2026-04-29 17:42 | 55.60148 | 37.28146 | 698 ft | 2 kts | 36° |
| 2026-04-29 17:42 | 55.60135 | 37.28130 | 698 ft | 2 kts | 36° |
| 2026-04-29 17:43 | 55.60123 | 37.28115 | 698 ft | 2 kts | 36° |
| 2026-04-29 17:43 | 55.60111 | 37.28099 | 698 ft | 2 kts | 36° |
| 2026-04-29 17:43 | 55.60100 | 37.28081 | 698 ft | 2 kts | 54° |
| 2026-04-29 17:43 | 55.60092 | 37.28058 | 698 ft | 2 kts | 67° |
| 2026-04-29 17:44 | 55.60088 | 37.28032 | 698 ft | 2 kts | 83° |
| 2026-04-29 17:44 | 55.60088 | 37.28006 | 698 ft | 2 kts | 98° |
| 2026-04-29 17:44 | 55.60090 | 37.27990 | 698 ft | 1 kts | 107° |
| 2026-04-29 17:44 | 55.60092 | 37.27981 | 698 ft | 0 kts | 108° |
| 2026-04-29 17:46 | 55.60087 | 37.28007 | 698 ft | 5 kts | 108° |
| 2026-04-29 17:46 | 55.60075 | 37.28124 | 698 ft | 13 kts | 89° |
| 2026-04-29 17:46 | 55.60084 | 37.28326 | 698 ft | 16 kts | 83° |
| 2026-04-29 17:47 | 55.60102 | 37.28426 | 698 ft | 7 kts | 60° |
| 2026-04-29 17:47 | 55.60127 | 37.28495 | 698 ft | 6 kts | 52° |
| 2026-04-29 17:47 | 55.60154 | 37.28549 | 698 ft | 5 kts | 43° |
| 2026-04-29 17:47 | 55.60181 | 37.28589 | 698 ft | 4 kts | 39° |
| 2026-04-29 17:48 | 55.60202 | 37.28619 | 698 ft | 3 kts | 39° |
| 2026-04-29 17:48 | 55.60213 | 37.28644 | 698 ft | 1 kts | 65° |
| 2026-04-29 17:48 | 55.60214 | 37.28672 | 698 ft | 3 kts | 99° |
| 2026-04-29 17:48 | 55.60194 | 37.28731 | 698 ft | 7 kts | 127° |
| 2026-04-29 17:49 | 55.60150 | 37.28816 | 698 ft | 11 kts | 139° |
| 2026-04-29 17:49 | 55.60085 | 37.28877 | 698 ft | 10 kts | 164° |
| 2026-04-29 17:49 | 55.60017 | 37.28906 | 698 ft | 9 kts | 166° |
| 2026-04-29 17:49 | 55.59955 | 37.28932 | 698 ft | 8 kts | 166° |
| 2026-04-29 17:50 | 55.59898 | 37.28955 | 698 ft | 7 kts | 167° |
| 2026-04-29 17:50 | 55.59847 | 37.28976 | 698 ft | 7 kts | 167° |
| 2026-04-29 17:50 | 55.59802 | 37.28972 | 698 ft | 6 kts | 204° |
| 2026-04-29 17:50 | 55.59776 | 37.28902 | 697 ft | 13 kts | 248° |
| 2026-04-29 17:51 | 55.59647 | 37.28318 | 698 ft | 86 kts | 248° |
| 2026-04-29 17:51 | 55.59347 | 37.26985 | 698 ft | 146 kts | 249° |
| 2026-04-29 17:51 | 55.58905 | 37.25090 | 911 ft | 178 kts | 251° |
| 2026-04-29 17:51 | 55.58422 | 37.23061 | 1620 ft | 183 kts | 249° |
| 2026-04-29 17:52 | 55.57757 | 37.21115 | 2263 ft | 196 kts | 235° |
| 2026-04-29 17:52 | 55.56853 | 37.19172 | 2776 ft | 203 kts | 234° |
| 2026-04-29 17:52 | 55.55950 | 37.17194 | 3248 ft | 214 kts | 236° |
| 2026-04-29 17:52 | 55.54956 | 37.15087 | 3579 ft | 235 kts | 225° |
| 2026-04-29 17:53 | 55.53505 | 37.13639 | 4173 ft | 246 kts | 198° |
| 2026-04-29 17:53 | 55.51850 | 37.12963 | 4914 ft | 248 kts | 192° |
| 2026-04-29 17:53 | 55.50120 | 37.12421 | 5618 ft | 251 kts | 186° |
| 2026-04-29 17:53 | 55.48385 | 37.12510 | 6280 ft | 254 kts | 167° |
| 2026-04-29 17:54 | 55.46733 | 37.13798 | 6733 ft | 264 kts | 142° |
| 2026-04-29 17:54 | 55.45254 | 37.15849 | 7207 ft | 276 kts | 137° |
| 2026-04-29 17:54 | 55.43755 | 37.18055 | 7803 ft | 284 kts | 138° |
| 2026-04-29 17:54 | 55.42212 | 37.20237 | 8468 ft | 288 kts | 140° |
| 2026-04-29 17:55 | 55.40618 | 37.22410 | 9057 ft | 293 kts | 141° |
| 2026-04-29 17:55 | 55.38996 | 37.24580 | 9150 ft | 294 kts | 141° |
| 2026-04-29 17:55 | 55.37379 | 37.26756 | 9138 ft | 291 kts | 138° |
| 2026-04-29 17:55 | 55.35851 | 37.29219 | 9302 ft | 301 kts | 133° |
| 2026-04-29 17:56 | 55.34419 | 37.31833 | 10180 ft | 296 kts | 131° |
| 2026-04-29 17:56 | 55.33022 | 37.34464 | 10915 ft | 296 kts | 130° |
| 2026-04-29 17:56 | 55.31766 | 37.37354 | 11540 ft | 298 kts | 117° |
| 2026-04-29 17:56 | 55.30999 | 37.40676 | 12143 ft | 298 kts | 103° |
| 2026-04-29 17:57 | 55.30497 | 37.44228 | 12714 ft | 301 kts | 100° |
| 2026-04-29 17:57 | 55.30035 | 37.47810 | 13350 ft | 304 kts | 100° |
| 2026-04-29 17:57 | 55.29550 | 37.51441 | 13946 ft | 307 kts | 101° |
| 2026-04-29 17:57 | 55.29038 | 37.55090 | 14574 ft | 309 kts | 102° |
| 2026-04-29 17:58 | 55.28511 | 37.58764 | 15116 ft | 313 kts | 102° |
| 2026-04-29 17:58 | 55.27935 | 37.62419 | 15662 ft | 317 kts | 107° |
| 2026-04-29 17:58 | 55.26971 | 37.65914 | 16199 ft | 322 kts | 124° |
| 2026-04-29 17:58 | 55.25408 | 37.68830 | 16468 ft | 335 kts | 141° |
| 2026-04-29 17:59 | 55.23503 | 37.71329 | 16744 ft | 347 kts | 144° |
| 2026-04-29 17:59 | 55.21513 | 37.73791 | 17228 ft | 352 kts | 144° |
| 2026-04-29 17:59 | 55.19504 | 37.76275 | 17762 ft | 355 kts | 144° |
| 2026-04-29 17:59 | 55.17491 | 37.78831 | 18271 ft | 359 kts | 142° |
| 2026-04-29 18:00 | 55.15588 | 37.81647 | 18795 ft | 361 kts | 136° |
| 2026-04-29 18:00 | 55.13773 | 37.84752 | 19319 ft | 363 kts | 134° |
| 2026-04-29 18:00 | 55.12031 | 37.87931 | 19868 ft | 365 kts | 133° |
| 2026-04-29 18:00 | 55.10283 | 37.91172 | 20393 ft | 367 kts | 133° |
| 2026-04-29 18:01 | 55.08544 | 37.94400 | 20889 ft | 369 kts | 133° |
| 2026-04-29 18:01 | 55.06770 | 37.97674 | 21366 ft | 372 kts | 133° |
| 2026-04-29 18:01 | 55.04985 | 38.00950 | 21871 ft | 374 kts | 133° |
| 2026-04-29 18:01 | 55.03185 | 38.04227 | 22322 ft | 376 kts | 133° |
| 2026-04-29 18:02 | 55.01357 | 38.07527 | 22783 ft | 378 kts | 133° |
| 2026-04-29 18:02 | 54.99509 | 38.10846 | 23235 ft | 381 kts | 133° |
| 2026-04-29 18:02 | 54.97662 | 38.14150 | 23695 ft | 382 kts | 133° |
| 2026-04-29 18:02 | 54.95801 | 38.17475 | 24113 ft | 385 kts | 133° |
| 2026-04-29 18:03 | 54.93942 | 38.20791 | 24542 ft | 386 kts | 133° |
| 2026-04-29 18:03 | 54.92069 | 38.24130 | 24941 ft | 389 kts | 133° |
| 2026-04-29 18:03 | 54.90155 | 38.27539 | 25337 ft | 391 kts | 133° |
| 2026-04-29 18:03 | 54.88257 | 38.30917 | 25719 ft | 393 kts | 133° |
| 2026-04-29 18:04 | 54.86408 | 38.34398 | 26071 ft | 395 kts | 129° |
| 2026-04-29 18:04 | 54.84715 | 38.38157 | 26443 ft | 396 kts | 123° |
| 2026-04-29 18:04 | 54.83223 | 38.42141 | 26799 ft | 397 kts | 119° |
| 2026-04-29 18:04 | 54.81812 | 38.46322 | 27150 ft | 399 kts | 117° |
| 2026-04-29 18:05 | 54.80472 | 38.50484 | 27495 ft | 401 kts | 117° |
| 2026-04-29 18:05 | 54.79128 | 38.54718 | 27822 ft | 403 kts | 117° |
| 2026-04-29 18:05 | 54.77734 | 38.58979 | 28144 ft | 406 kts | 120° |
| 2026-04-29 18:05 | 54.76095 | 38.62923 | 28469 ft | 409 kts | 129° |
| 2026-04-29 18:06 | 54.74038 | 38.66387 | 28665 ft | 415 kts | 140° |
| 2026-04-29 18:06 | 54.69098 | 38.72037 | 28796 ft | 433 kts | 149° |
| 2026-04-29 18:07 | 54.63736 | 38.77301 | 28919 ft | 450 kts | 149° |
| 2026-04-29 18:07 | 54.58210 | 38.82756 | 29126 ft | 464 kts | 148° |
| 2026-04-29 18:07 | 54.55418 | 38.85562 | 29460 ft | 465 kts | 148° |
| 2026-04-29 18:08 | 54.52657 | 38.88360 | 29889 ft | 464 kts | 148° |
| 2026-04-29 18:08 | 54.49876 | 38.91193 | 30345 ft | 462 kts | 148° |
| 2026-04-29 18:08 | 54.47093 | 38.94049 | 30737 ft | 461 kts | 147° |
| 2026-04-29 18:08 | 54.44405 | 38.97053 | 31089 ft | 460 kts | 143° |
| 2026-04-29 18:09 | 54.41904 | 39.00431 | 31426 ft | 457 kts | 137° |
| 2026-04-29 18:09 | 54.39650 | 39.04207 | 31638 ft | 456 kts | 131° |
| 2026-04-29 18:09 | 54.37621 | 39.08426 | 31800 ft | 455 kts | 124° |
| 2026-04-29 18:09 | 54.35888 | 39.12958 | 31965 ft | 454 kts | 118° |
| 2026-04-29 18:10 | 54.34448 | 39.17794 | 32124 ft | 454 kts | 112° |
| 2026-04-29 18:10 | 54.33258 | 39.22755 | 32293 ft | 454 kts | 110° |
| 2026-04-29 18:10 | 54.32164 | 39.27819 | 32396 ft | 455 kts | 109° |
| 2026-04-29 18:10 | 54.31078 | 39.32966 | 32535 ft | 456 kts | 109° |
| 2026-04-29 18:11 | 54.29993 | 39.38014 | 32667 ft | 457 kts | 109° |
| 2026-04-29 18:11 | 54.28867 | 39.43090 | 32786 ft | 458 kts | 110° |
| 2026-04-29 18:11 | 54.27697 | 39.48198 | 32934 ft | 459 kts | 111° |
| 2026-04-29 18:11 | 54.26512 | 39.53249 | 33051 ft | 461 kts | 111° |
| 2026-04-29 18:12 | 54.25299 | 39.58322 | 33159 ft | 462 kts | 112° |
| 2026-04-29 18:12 | 54.24081 | 39.63350 | 33272 ft | 463 kts | 112° |
| 2026-04-29 18:12 | 54.22833 | 39.68453 | 33417 ft | 464 kts | 114° |
| 2026-04-29 18:12 | 54.21586 | 39.73524 | 33551 ft | 464 kts | 114° |
| 2026-04-29 18:13 | 54.20339 | 39.78572 | 33687 ft | 465 kts | 114° |
| 2026-04-29 18:13 | 54.19071 | 39.83688 | 33867 ft | 466 kts | 114° |
| 2026-04-29 18:13 | 54.17812 | 39.88756 | 34067 ft | 465 kts | 114° |
| 2026-04-29 18:13 | 54.16557 | 39.93796 | 34286 ft | 465 kts | 114° |
| 2026-04-29 18:14 | 54.15296 | 39.98846 | 34484 ft | 465 kts | 115° |
| 2026-04-29 18:14 | 54.14026 | 40.03923 | 34669 ft | 465 kts | 115° |
| 2026-04-29 18:14 | 54.12768 | 40.08941 | 34869 ft | 465 kts | 114° |
| 2026-04-29 18:14 | 54.11546 | 40.14001 | 35053 ft | 465 kts | 112° |
| 2026-04-29 18:15 | 54.10479 | 40.19186 | 35116 ft | 467 kts | 109° |
| 2026-04-29 18:15 | 54.08634 | 40.29742 | 35118 ft | 466 kts | 107° |
| 2026-04-29 18:16 | 54.06876 | 40.40407 | 35109 ft | 466 kts | 107° |
| 2026-04-29 18:16 | 54.05106 | 40.50918 | 35112 ft | 466 kts | 107° |
| 2026-04-29 18:17 | 54.03279 | 40.61483 | 35114 ft | 465 kts | 108° |
| 2026-04-29 18:17 | 54.01424 | 40.72028 | 35109 ft | 466 kts | 109° |
| 2026-04-29 18:18 | 53.99556 | 40.82527 | 35114 ft | 467 kts | 109° |
| 2026-04-29 18:18 | 53.97669 | 40.93053 | 35115 ft | 467 kts | 109° |
| 2026-04-29 18:19 | 53.95782 | 41.03514 | 35104 ft | 467 kts | 109° |
| 2026-04-29 18:19 | 53.93966 | 41.14079 | 35108 ft | 467 kts | 107° |
| 2026-04-29 18:20 | 53.92253 | 41.24627 | 35107 ft | 467 kts | 107° |
| 2026-04-29 18:20 | 53.90526 | 41.35268 | 35112 ft | 467 kts | 107° |
| 2026-04-29 18:21 | 53.88856 | 41.45431 | 35111 ft | 468 kts | 107° |
| 2026-04-29 18:21 | 53.87104 | 41.55960 | 35110 ft | 468 kts | 108° |
| 2026-04-29 18:22 | 53.85334 | 41.66500 | 35115 ft | 469 kts | 108° |
| 2026-04-29 18:22 | 53.83535 | 41.77124 | 35112 ft | 469 kts | 109° |
| 2026-04-29 18:23 | 53.81731 | 41.87688 | 35117 ft | 468 kts | 109° |
| 2026-04-29 18:23 | 53.79918 | 41.98214 | 35123 ft | 469 kts | 109° |
| 2026-04-29 18:24 | 53.78081 | 42.08812 | 35118 ft | 469 kts | 109° |
| 2026-04-29 18:24 | 53.76246 | 42.19335 | 35117 ft | 470 kts | 109° |
| 2026-04-29 18:25 | 53.74392 | 42.29915 | 35114 ft | 470 kts | 109° |
| 2026-04-29 18:25 | 53.72530 | 42.40478 | 35117 ft | 471 kts | 109° |
| 2026-04-29 18:26 | 53.70663 | 42.51009 | 35120 ft | 470 kts | 109° |
| 2026-04-29 18:26 | 53.68221 | 42.61107 | 35119 ft | 464 kts | 124° |
| 2026-04-29 18:26 | 53.66286 | 42.65391 | 35120 ft | 458 kts | 137° |
| 2026-04-29 18:27 | 53.63937 | 42.68954 | 35120 ft | 454 kts | 147° |
| 2026-04-29 18:27 | 53.58667 | 42.74454 | 35118 ft | 447 kts | 157° |
| 2026-04-29 18:28 | 53.53039 | 42.78703 | 35119 ft | 442 kts | 161° |
| 2026-04-29 18:28 | 53.47349 | 42.82637 | 35119 ft | 444 kts | 161° |
| 2026-04-29 18:29 | 53.41622 | 42.86603 | 35122 ft | 444 kts | 161° |
| 2026-04-29 18:29 | 53.35966 | 42.90578 | 35125 ft | 444 kts | 161° |
| 2026-04-29 18:30 | 53.30284 | 42.94602 | 35126 ft | 445 kts | 161° |
| 2026-04-29 18:30 | 53.24596 | 42.98639 | 35129 ft | 443 kts | 161° |
| 2026-04-29 18:31 | 53.18978 | 43.02624 | 35129 ft | 443 kts | 161° |
| 2026-04-29 18:31 | 53.13309 | 43.06636 | 35132 ft | 443 kts | 161° |
| 2026-04-29 18:32 | 53.07704 | 43.10730 | 35128 ft | 442 kts | 160° |
| 2026-04-29 18:32 | 52.99295 | 43.17021 | 35126 ft | 442 kts | 160° |
| 2026-04-29 18:33 | 52.93724 | 43.21169 | 35137 ft | 441 kts | 160° |
| 2026-04-29 18:33 | 52.88138 | 43.25302 | 35138 ft | 442 kts | 160° |
| 2026-04-29 18:34 | 52.83471 | 43.28742 | 35134 ft | 441 kts | 160° |
| 2026-04-29 18:34 | 52.76969 | 43.33517 | 35141 ft | 440 kts | 160° |
| 2026-04-29 18:35 | 52.71383 | 43.37603 | 35133 ft | 439 kts | 160° |
| 2026-04-29 18:35 | 52.65806 | 43.41671 | 35136 ft | 438 kts | 160° |
| 2026-04-29 18:36 | 52.60232 | 43.45728 | 35132 ft | 439 kts | 160° |
| 2026-04-29 18:36 | 52.54644 | 43.49781 | 35123 ft | 437 kts | 160° |
| 2026-04-29 18:37 | 52.49082 | 43.53802 | 35141 ft | 438 kts | 160° |
| 2026-04-29 18:37 | 52.43532 | 43.57805 | 35137 ft | 438 kts | 160° |
| 2026-04-29 18:38 | 52.37944 | 43.61826 | 35136 ft | 438 kts | 161° |
| 2026-04-29 18:38 | 52.32378 | 43.65818 | 35127 ft | 437 kts | 161° |
| 2026-04-29 18:39 | 52.26827 | 43.69791 | 35137 ft | 435 kts | 161° |
| 2026-04-29 18:39 | 52.21304 | 43.73731 | 35133 ft | 435 kts | 161° |
| 2026-04-29 18:40 | 52.15757 | 43.77676 | 35119 ft | 435 kts | 161° |
| 2026-04-29 18:40 | 52.10210 | 43.81612 | 35135 ft | 436 kts | 161° |
| 2026-04-29 18:41 | 51.99180 | 43.89407 | 35132 ft | 434 kts | 161° |
| 2026-04-29 18:42 | 51.93639 | 43.93305 | 35128 ft | 435 kts | 161° |
| 2026-04-29 18:42 | 51.88122 | 43.97178 | 35128 ft | 434 kts | 161° |
| 2026-04-29 18:43 | 51.82578 | 44.01060 | 35131 ft | 434 kts | 161° |
| 2026-04-29 18:43 | 51.77028 | 44.04937 | 35133 ft | 434 kts | 161° |
| 2026-04-29 18:44 | 51.71507 | 44.08780 | 35138 ft | 434 kts | 162° |
| 2026-04-29 18:44 | 51.65945 | 44.12642 | 35148 ft | 434 kts | 162° |
| 2026-04-29 18:45 | 51.60419 | 44.16466 | 35155 ft | 434 kts | 162° |
| 2026-04-29 18:45 | 51.54898 | 44.20280 | 35156 ft | 433 kts | 162° |
| 2026-04-29 18:46 | 51.49365 | 44.24094 | 35155 ft | 433 kts | 162° |
| 2026-04-29 18:46 | 51.43840 | 44.27889 | 35166 ft | 433 kts | 162° |
| 2026-04-29 18:47 | 51.41063 | 44.29791 | 35291 ft | 435 kts | 162° |
| 2026-04-29 18:47 | 51.38324 | 44.31667 | 35560 ft | 432 kts | 162° |
| 2026-04-29 18:47 | 51.35531 | 44.33579 | 35762 ft | 432 kts | 162° |
| 2026-04-29 18:47 | 51.32802 | 44.35443 | 35938 ft | 432 kts | 162° |
| 2026-04-29 18:48 | 51.30004 | 44.37351 | 36089 ft | 433 kts | 162° |
| 2026-04-29 18:48 | 51.27233 | 44.39237 | 36158 ft | 435 kts | 162° |
| 2026-04-29 18:48 | 51.21683 | 44.43008 | 36159 ft | 434 kts | 162° |
| 2026-04-29 18:49 | 51.16036 | 44.46081 | 36153 ft | 424 kts | 173° |
| 2026-04-29 18:49 | 51.10229 | 44.46618 | 36162 ft | 419 kts | 185° |
| 2026-04-29 18:50 | 51.04449 | 44.46094 | 36157 ft | 415 kts | 187° |
| 2026-04-29 18:50 | 50.98688 | 44.45432 | 36168 ft | 415 kts | 187° |
| 2026-04-29 18:51 | 50.92936 | 44.44817 | 36159 ft | 415 kts | 187° |
| 2026-04-29 18:51 | 50.87177 | 44.44246 | 36161 ft | 415 kts | 187° |
| 2026-04-29 18:52 | 50.81441 | 44.43698 | 36160 ft | 414 kts | 187° |
| 2026-04-29 18:52 | 50.75708 | 44.43162 | 36164 ft | 413 kts | 187° |
| 2026-04-29 18:53 | 50.69973 | 44.42629 | 36164 ft | 414 kts | 187° |
| 2026-04-29 18:53 | 50.64232 | 44.42101 | 36164 ft | 414 kts | 187° |
| 2026-04-29 18:54 | 50.58464 | 44.41569 | 36170 ft | 415 kts | 187° |
| 2026-04-29 18:54 | 50.52725 | 44.41042 | 36166 ft | 414 kts | 187° |
| 2026-04-29 18:55 | 50.46981 | 44.40516 | 36167 ft | 414 kts | 187° |
| 2026-04-29 18:55 | 50.41225 | 44.39990 | 36164 ft | 414 kts | 187° |
| 2026-04-29 18:56 | 50.35499 | 44.39467 | 36164 ft | 413 kts | 187° |
| 2026-04-29 18:56 | 50.29756 | 44.38944 | 36162 ft | 414 kts | 187° |
| 2026-04-29 18:57 | 50.24032 | 44.38424 | 36166 ft | 413 kts | 187° |
| 2026-04-29 18:57 | 50.18321 | 44.37909 | 36167 ft | 412 kts | 187° |
| 2026-04-29 18:58 | 50.12603 | 44.37393 | 36168 ft | 412 kts | 187° |
| 2026-04-29 18:58 | 50.06887 | 44.36876 | 36164 ft | 412 kts | 187° |
| 2026-04-29 18:59 | 50.01174 | 44.36362 | 36165 ft | 412 kts | 187° |
| 2026-04-29 18:59 | 49.95462 | 44.35851 | 36170 ft | 412 kts | 187° |
| 2026-04-29 19:00 | 49.89749 | 44.35339 | 36175 ft | 412 kts | 187° |
| 2026-04-29 19:00 | 49.84403 | 44.34863 | 36174 ft | 411 kts | 187° |
| 2026-04-29 19:01 | 49.78670 | 44.34352 | 36173 ft | 411 kts | 187° |
| 2026-04-29 19:01 | 49.72962 | 44.33844 | 36170 ft | 412 kts | 187° |
| 2026-04-29 19:02 | 49.67285 | 44.33341 | 36170 ft | 411 kts | 187° |
| 2026-04-29 19:02 | 49.61561 | 44.32859 | 36172 ft | 412 kts | 186° |
| 2026-04-29 19:03 | 49.55816 | 44.33480 | 36171 ft | 420 kts | 172° |
| 2026-04-29 19:03 | 49.50238 | 44.36321 | 36173 ft | 427 kts | 163° |
| 2026-04-29 19:04 | 49.44768 | 44.39848 | 36170 ft | 427 kts | 162° |
| 2026-04-29 19:04 | 49.39300 | 44.43447 | 36170 ft | 427 kts | 162° |
| 2026-04-29 19:05 | 49.33844 | 44.46976 | 36167 ft | 426 kts | 162° |
| 2026-04-29 19:05 | 49.28370 | 44.50465 | 36166 ft | 426 kts | 163° |
| 2026-04-29 19:06 | 49.22930 | 44.53904 | 36164 ft | 425 kts | 162° |
| 2026-04-29 19:07 | 49.14765 | 44.59038 | 36165 ft | 424 kts | 163° |
| 2026-04-29 19:07 | 49.09303 | 44.62461 | 36168 ft | 425 kts | 163° |
| 2026-04-29 19:08 | 49.03853 | 44.65868 | 36168 ft | 424 kts | 163° |
| 2026-04-29 19:08 | 48.98380 | 44.69284 | 36177 ft | 422 kts | 163° |
| 2026-04-29 19:09 | 48.92961 | 44.72655 | 36177 ft | 423 kts | 163° |
| 2026-04-29 19:09 | 48.87497 | 44.76070 | 36177 ft | 424 kts | 162° |
| 2026-04-29 19:10 | 48.82260 | 44.80278 | 36185 ft | 431 kts | 153° |
| 2026-04-29 19:10 | 48.77359 | 44.85654 | 36175 ft | 435 kts | 148° |
| 2026-04-29 19:11 | 48.72638 | 44.91305 | 36173 ft | 435 kts | 148° |
| 2026-04-29 19:11 | 48.67886 | 44.97028 | 36177 ft | 434 kts | 148° |
| 2026-04-29 19:12 | 48.63170 | 45.02651 | 36176 ft | 434 kts | 148° |
| 2026-04-29 19:12 | 48.58421 | 45.08263 | 36174 ft | 432 kts | 148° |
| 2026-04-29 19:13 | 48.53685 | 45.13827 | 36175 ft | 433 kts | 149° |
| 2026-04-29 19:13 | 48.48908 | 45.19421 | 36176 ft | 434 kts | 149° |
| 2026-04-29 19:14 | 48.44151 | 45.24976 | 36179 ft | 434 kts | 149° |
| 2026-04-29 19:14 | 48.39285 | 45.30196 | 36178 ft | 427 kts | 155° |
| 2026-04-29 19:15 | 48.34086 | 45.34362 | 36177 ft | 423 kts | 160° |
| 2026-04-29 19:15 | 48.28783 | 45.38169 | 36175 ft | 422 kts | 160° |
| 2026-04-29 19:16 | 48.23524 | 45.41924 | 36175 ft | 421 kts | 160° |
| 2026-04-29 19:16 | 48.18229 | 45.45741 | 36176 ft | 422 kts | 160° |
| 2026-04-29 19:17 | 48.12993 | 45.49541 | 36173 ft | 422 kts | 160° |
| 2026-04-29 19:17 | 48.07718 | 45.53375 | 36176 ft | 421 kts | 160° |
| 2026-04-29 19:18 | 48.02438 | 45.57207 | 36173 ft | 422 kts | 160° |
| 2026-04-29 19:18 | 47.97195 | 45.61006 | 36175 ft | 423 kts | 160° |
| 2026-04-29 19:19 | 47.91879 | 45.64853 | 36175 ft | 422 kts | 160° |
| 2026-04-29 19:19 | 47.86637 | 45.68638 | 36176 ft | 421 kts | 160° |
| 2026-04-29 19:20 | 47.81370 | 45.72429 | 36176 ft | 421 kts | 160° |
| 2026-04-29 19:20 | 47.76119 | 45.76201 | 36175 ft | 421 kts | 160° |
| 2026-04-29 19:21 | 47.70855 | 45.79975 | 36174 ft | 420 kts | 161° |
| 2026-04-29 19:21 | 47.65588 | 45.83740 | 36173 ft | 420 kts | 160° |
| 2026-04-29 19:22 | 47.60359 | 45.87472 | 36174 ft | 418 kts | 160° |
| 2026-04-29 19:22 | 47.55092 | 45.91218 | 36169 ft | 420 kts | 160° |
| 2026-04-29 19:23 | 47.49828 | 45.94955 | 36169 ft | 418 kts | 160° |
| 2026-04-29 19:23 | 47.44574 | 45.98680 | 36165 ft | 420 kts | 160° |
| 2026-04-29 19:24 | 47.39316 | 46.02396 | 36163 ft | 421 kts | 160° |
| 2026-04-29 19:24 | 47.34016 | 46.06142 | 36165 ft | 420 kts | 160° |
| 2026-04-29 19:25 | 47.28759 | 46.09857 | 36160 ft | 420 kts | 160° |
| 2026-04-29 19:25 | 47.23478 | 46.13584 | 36160 ft | 421 kts | 160° |
| 2026-04-29 19:26 | 47.18227 | 46.17281 | 36158 ft | 420 kts | 160° |
| 2026-04-29 19:26 | 47.12946 | 46.20992 | 36159 ft | 420 kts | 160° |
| 2026-04-29 19:27 | 47.07733 | 46.24858 | 36157 ft | 424 kts | 154° |
| 2026-04-29 19:27 | 47.05313 | 46.27412 | 35844 ft | 432 kts | 144° |
| 2026-04-29 19:27 | 47.03252 | 46.30613 | 36048 ft | 437 kts | 135° |
| 2026-04-29 19:27 | 47.01461 | 46.34179 | 36157 ft | 442 kts | 131° |
| 2026-04-29 19:28 | 46.99751 | 46.37931 | 36157 ft | 447 kts | 129° |
| 2026-04-29 19:28 | 46.96407 | 46.45702 | 36151 ft | 451 kts | 128° |
| 2026-04-29 19:29 | 46.93100 | 46.53465 | 36150 ft | 450 kts | 128° |
| 2026-04-29 19:29 | 46.89772 | 46.61180 | 36154 ft | 449 kts | 128° |
| 2026-04-29 19:30 | 46.86425 | 46.68858 | 36156 ft | 448 kts | 129° |
| 2026-04-29 19:30 | 46.83057 | 46.76536 | 36158 ft | 446 kts | 129° |
| 2026-04-29 19:31 | 46.79723 | 46.84101 | 36150 ft | 447 kts | 129° |
| 2026-04-29 19:31 | 46.76331 | 46.91766 | 36158 ft | 448 kts | 129° |
| 2026-04-29 19:32 | 46.72977 | 46.99331 | 36154 ft | 446 kts | 129° |
| 2026-04-29 19:32 | 46.69618 | 47.06883 | 36154 ft | 446 kts | 129° |
| 2026-04-29 19:33 | 46.66266 | 47.14505 | 36156 ft | 446 kts | 128° |
| 2026-04-29 19:33 | 46.62971 | 47.22086 | 36155 ft | 446 kts | 128° |
| 2026-04-29 19:34 | 46.59642 | 47.29734 | 36155 ft | 447 kts | 128° |
| 2026-04-29 19:34 | 46.56323 | 47.37326 | 36156 ft | 446 kts | 128° |
| 2026-04-29 19:35 | 46.53006 | 47.44880 | 36155 ft | 447 kts | 128° |
| 2026-04-29 19:35 | 46.49656 | 47.52486 | 36155 ft | 446 kts | 128° |
| 2026-04-29 19:36 | 46.46328 | 47.60022 | 36157 ft | 446 kts | 128° |
| 2026-04-29 19:36 | 46.42966 | 47.67608 | 36157 ft | 446 kts | 129° |
| 2026-04-29 19:37 | 46.39627 | 47.75128 | 36156 ft | 445 kts | 129° |
| 2026-04-29 19:37 | 46.36269 | 47.82662 | 36160 ft | 446 kts | 129° |
| 2026-04-29 19:38 | 46.32892 | 47.90223 | 36165 ft | 444 kts | 129° |
| 2026-04-29 19:38 | 46.29619 | 47.97812 | 36162 ft | 448 kts | 124° |
| 2026-04-29 19:39 | 46.27255 | 48.06217 | 36167 ft | 457 kts | 112° |
| 2026-04-29 19:39 | 46.25724 | 48.15183 | 36171 ft | 461 kts | 108° |
| 2026-04-29 19:40 | 46.24410 | 48.24236 | 36163 ft | 461 kts | 107° |
| 2026-04-29 19:40 | 46.23097 | 48.33275 | 36151 ft | 460 kts | 107° |
| 2026-04-29 19:41 | 46.21751 | 48.42233 | 36156 ft | 460 kts | 108° |
| 2026-04-29 19:41 | 46.19804 | 48.50932 | 36146 ft | 447 kts | 123° |
| 2026-04-29 19:41 | 46.18132 | 48.54577 | 36143 ft | 438 kts | 134° |
| 2026-04-29 19:42 | 46.16033 | 48.57725 | 36144 ft | 432 kts | 143° |
| 2026-04-29 19:42 | 46.11215 | 48.62785 | 36140 ft | 423 kts | 156° |
| 2026-04-29 19:43 | 46.05779 | 48.65699 | 36139 ft | 417 kts | 168° |
| 2026-04-29 19:43 | 46.00184 | 48.67880 | 36139 ft | 416 kts | 169° |
| 2026-04-29 19:44 | 45.94600 | 48.70011 | 36139 ft | 417 kts | 169° |
| 2026-04-29 19:44 | 45.89016 | 48.72185 | 36134 ft | 418 kts | 168° |
| 2026-04-29 19:45 | 45.83398 | 48.74404 | 36136 ft | 418 kts | 168° |
| 2026-04-29 19:45 | 45.77772 | 48.76640 | 36137 ft | 418 kts | 168° |
| 2026-04-29 19:46 | 45.72189 | 48.78860 | 36138 ft | 418 kts | 168° |
| 2026-04-29 19:46 | 45.66565 | 48.81095 | 36135 ft | 419 kts | 168° |
| 2026-04-29 19:47 | 45.60957 | 48.83319 | 36135 ft | 420 kts | 168° |
| 2026-04-29 19:47 | 45.55356 | 48.85535 | 36134 ft | 420 kts | 168° |
| 2026-04-29 19:48 | 45.49726 | 48.87759 | 36135 ft | 420 kts | 168° |
| 2026-04-29 19:48 | 45.44077 | 48.89985 | 36134 ft | 421 kts | 168° |
| 2026-04-29 19:49 | 45.38456 | 48.92196 | 36132 ft | 421 kts | 168° |
| 2026-04-29 19:49 | 45.32764 | 48.93329 | 36133 ft | 412 kts | 192° |
| 2026-04-29 19:49 | 45.30073 | 48.91940 | 36136 ft | 411 kts | 211° |
| 2026-04-29 19:50 | 45.27851 | 48.89437 | 36137 ft | 413 kts | 225° |
| 2026-04-29 19:50 | 45.24131 | 48.83203 | 36137 ft | 413 kts | 229° |
| 2026-04-29 19:51 | 45.20470 | 48.76971 | 36137 ft | 413 kts | 229° |
| 2026-04-29 19:51 | 45.16793 | 48.70788 | 36138 ft | 412 kts | 228° |
| 2026-04-29 19:52 | 45.13064 | 48.64563 | 36140 ft | 413 kts | 229° |
| 2026-04-29 19:52 | 45.09352 | 48.58390 | 36139 ft | 412 kts | 228° |
| 2026-04-29 19:53 | 45.05646 | 48.52243 | 36139 ft | 412 kts | 229° |
| 2026-04-29 19:53 | 45.01922 | 48.46083 | 36139 ft | 412 kts | 228° |
| 2026-04-29 19:54 | 44.96343 | 48.36878 | 36144 ft | 412 kts | 229° |
| 2026-04-29 19:54 | 44.92604 | 48.30729 | 36146 ft | 413 kts | 228° |
| 2026-04-29 19:55 | 44.88883 | 48.24621 | 36146 ft | 412 kts | 228° |
| 2026-04-29 19:55 | 44.85166 | 48.18535 | 36147 ft | 412 kts | 228° |
| 2026-04-29 19:56 | 44.81417 | 48.12407 | 36152 ft | 411 kts | 228° |
| 2026-04-29 19:56 | 44.77712 | 48.06364 | 36152 ft | 411 kts | 228° |
| 2026-04-29 19:57 | 44.73975 | 48.00283 | 36149 ft | 411 kts | 228° |
| 2026-04-29 19:57 | 44.70237 | 47.94214 | 36153 ft | 411 kts | 228° |
| 2026-04-29 19:58 | 44.66504 | 47.88164 | 36153 ft | 411 kts | 228° |
| 2026-04-29 19:58 | 44.62772 | 47.82130 | 36155 ft | 412 kts | 228° |
| 2026-04-29 19:59 | 44.59016 | 47.76071 | 36154 ft | 411 kts | 228° |
| 2026-04-29 19:59 | 44.55256 | 47.70018 | 36152 ft | 411 kts | 228° |
| 2026-04-29 20:00 | 44.51522 | 47.64021 | 36155 ft | 412 kts | 228° |
| 2026-04-29 20:00 | 44.47753 | 47.57978 | 36155 ft | 411 kts | 228° |
| 2026-04-29 20:01 | 44.44008 | 47.51987 | 36154 ft | 411 kts | 228° |
| 2026-04-29 20:01 | 44.40255 | 47.45995 | 36152 ft | 411 kts | 229° |
| 2026-04-29 20:02 | 44.36491 | 47.40001 | 36156 ft | 411 kts | 228° |
| 2026-04-29 20:02 | 44.33366 | 47.35032 | 36155 ft | 411 kts | 229° |
| 2026-04-29 20:03 | 44.28946 | 47.28023 | 36153 ft | 411 kts | 228° |
| 2026-04-29 20:03 | 44.25155 | 47.22023 | 36154 ft | 412 kts | 228° |
| 2026-04-29 20:04 | 44.21382 | 47.16062 | 36155 ft | 411 kts | 228° |
| 2026-04-29 20:04 | 44.17623 | 47.10138 | 36155 ft | 411 kts | 228° |
| 2026-04-29 20:05 | 44.13833 | 47.04177 | 36153 ft | 410 kts | 228° |
| 2026-04-29 20:05 | 44.10081 | 46.98288 | 36151 ft | 410 kts | 228° |
| 2026-04-29 20:06 | 44.06276 | 46.92327 | 36156 ft | 411 kts | 228° |
| 2026-04-29 20:06 | 44.02498 | 46.86425 | 36153 ft | 410 kts | 228° |
| 2026-04-29 20:07 | 43.98709 | 46.80516 | 36153 ft | 411 kts | 228° |
| 2026-04-29 20:07 | 43.94923 | 46.74624 | 36151 ft | 412 kts | 228° |
| 2026-04-29 20:08 | 43.91756 | 46.69703 | 36154 ft | 412 kts | 228° |
| 2026-04-29 20:08 | 43.87295 | 46.62789 | 36153 ft | 412 kts | 228° |
| 2026-04-29 20:09 | 43.83468 | 46.56869 | 36150 ft | 412 kts | 228° |
| 2026-04-29 20:09 | 43.79655 | 46.50984 | 36153 ft | 411 kts | 228° |
| 2026-04-29 20:10 | 43.75858 | 46.45135 | 36151 ft | 411 kts | 228° |
| 2026-04-29 20:10 | 43.72035 | 46.39259 | 36152 ft | 412 kts | 228° |
| 2026-04-29 20:11 | 43.68226 | 46.33416 | 36151 ft | 411 kts | 227° |
| 2026-04-29 20:11 | 43.64383 | 46.27532 | 36152 ft | 412 kts | 227° |
| 2026-04-29 20:12 | 43.60565 | 46.21699 | 36151 ft | 411 kts | 228° |
| 2026-04-29 20:12 | 43.56715 | 46.15831 | 36151 ft | 413 kts | 228° |
| 2026-04-29 20:13 | 43.53015 | 46.09766 | 36150 ft | 413 kts | 235° |
| 2026-04-29 20:13 | 43.50634 | 46.02608 | 36150 ft | 415 kts | 253° |
| 2026-04-29 20:14 | 43.49778 | 45.94755 | 36153 ft | 420 kts | 266° |
| 2026-04-29 20:14 | 43.50118 | 45.86674 | 36147 ft | 423 kts | 273° |
| 2026-04-29 20:15 | 43.50875 | 45.78637 | 36151 ft | 423 kts | 274° |
| 2026-04-29 20:15 | 43.51644 | 45.70600 | 36148 ft | 423 kts | 274° |
| 2026-04-29 20:16 | 43.52353 | 45.62593 | 36144 ft | 423 kts | 274° |
| 2026-04-29 20:16 | 43.53019 | 45.54610 | 36145 ft | 422 kts | 273° |
| 2026-04-29 20:17 | 43.53666 | 45.46584 | 36137 ft | 421 kts | 273° |
| 2026-04-29 20:17 | 43.54299 | 45.38570 | 36132 ft | 421 kts | 273° |
| 2026-04-29 20:18 | 43.54922 | 45.30592 | 36130 ft | 420 kts | 272° |
| 2026-04-29 20:18 | 43.55539 | 45.22615 | 36124 ft | 420 kts | 272° |
| 2026-04-29 20:19 | 43.56150 | 45.14643 | 36124 ft | 419 kts | 272° |
| 2026-04-29 20:19 | 43.56754 | 45.06681 | 36125 ft | 418 kts | 272° |
| 2026-04-29 20:20 | 43.57354 | 44.98701 | 36123 ft | 419 kts | 272° |
| 2026-04-29 20:20 | 43.57949 | 44.90718 | 36129 ft | 419 kts | 272° |
| 2026-04-29 20:21 | 43.58536 | 44.82756 | 36124 ft | 418 kts | 272° |
| 2026-04-29 20:21 | 43.59117 | 44.74797 | 36125 ft | 418 kts | 272° |
| 2026-04-29 20:22 | 43.59692 | 44.66844 | 36125 ft | 419 kts | 272° |
| 2026-04-29 20:22 | 43.60260 | 44.58911 | 36125 ft | 418 kts | 272° |
| 2026-04-29 20:23 | 43.60829 | 44.50905 | 36129 ft | 418 kts | 272° |
| 2026-04-29 20:23 | 43.61389 | 44.42918 | 35966 ft | 420 kts | 272° |
| 2026-04-29 20:24 | 43.61666 | 44.38963 | 36111 ft | 413 kts | 272° |
| 2026-04-29 20:24 | 43.61942 | 44.34977 | 36300 ft | 420 kts | 272° |
| 2026-04-29 20:24 | 43.62215 | 44.31022 | 36146 ft | 416 kts | 272° |
| 2026-04-29 20:24 | 43.62488 | 44.27074 | 36129 ft | 411 kts | 272° |
| 2026-04-29 20:25 | 43.63023 | 44.19189 | 36131 ft | 415 kts | 272° |
| 2026-04-29 20:25 | 43.63541 | 44.11244 | 36126 ft | 414 kts | 271° |
| 2026-04-29 20:26 | 43.63824 | 44.03335 | 36128 ft | 413 kts | 269° |
| 2026-04-29 20:26 | 43.64005 | 43.95451 | 36123 ft | 412 kts | 269° |
| 2026-04-29 20:27 | 43.64161 | 43.88884 | 36124 ft | 412 kts | 269° |
| 2026-04-29 20:27 | 43.64395 | 43.79726 | 36123 ft | 412 kts | 269° |
| 2026-04-29 20:28 | 43.64603 | 43.71858 | 36125 ft | 411 kts | 269° |
| 2026-04-29 20:28 | 43.64810 | 43.63979 | 36124 ft | 411 kts | 269° |
| 2026-04-29 20:29 | 43.65011 | 43.56113 | 36122 ft | 411 kts | 269° |
| 2026-04-29 20:29 | 43.65208 | 43.48207 | 36129 ft | 410 kts | 269° |
| 2026-04-29 20:30 | 43.65400 | 43.40351 | 36132 ft | 410 kts | 269° |
| 2026-04-29 20:30 | 43.65580 | 43.32665 | 36149 ft | 410 kts | 268° |
| 2026-04-29 20:31 | 43.65762 | 43.24816 | 36143 ft | 409 kts | 269° |
| 2026-04-29 20:31 | 43.65937 | 43.16959 | 36124 ft | 408 kts | 268° |
| 2026-04-29 20:32 | 43.66105 | 43.09153 | 36140 ft | 408 kts | 269° |
| 2026-04-29 20:32 | 43.66268 | 43.01335 | 36135 ft | 408 kts | 269° |
| 2026-04-29 20:33 | 43.66426 | 42.93492 | 36139 ft | 408 kts | 269° |
| 2026-04-29 20:33 | 43.66577 | 42.85690 | 36123 ft | 409 kts | 269° |
| 2026-04-29 20:34 | 43.66725 | 42.77881 | 36128 ft | 408 kts | 269° |
| 2026-04-29 20:34 | 43.66869 | 42.70045 | 36108 ft | 409 kts | 269° |
| 2026-04-29 20:35 | 43.67007 | 42.62205 | 36099 ft | 408 kts | 269° |
| 2026-04-29 20:35 | 43.67139 | 42.54398 | 36097 ft | 407 kts | 269° |
| 2026-04-29 20:36 | 43.67264 | 42.46619 | 36086 ft | 408 kts | 269° |
| 2026-04-29 20:36 | 43.67384 | 42.38771 | 36088 ft | 407 kts | 269° |
| 2026-04-29 20:37 | 43.67500 | 42.30980 | 36084 ft | 409 kts | 268° |
| 2026-04-29 20:37 | 43.67609 | 42.23140 | 36085 ft | 408 kts | 268° |
| 2026-04-29 20:38 | 43.67715 | 42.15280 | 36082 ft | 408 kts | 268° |
| 2026-04-29 20:38 | 43.67815 | 42.07497 | 36082 ft | 410 kts | 268° |
| 2026-04-29 20:39 | 43.67909 | 41.99647 | 36082 ft | 409 kts | 268° |
| 2026-04-29 20:39 | 43.67999 | 41.91779 | 36088 ft | 407 kts | 268° |
| 2026-04-29 20:40 | 43.68081 | 41.83973 | 36103 ft | 408 kts | 268° |
| 2026-04-29 20:40 | 43.68159 | 41.76194 | 36111 ft | 406 kts | 268° |
| 2026-04-29 20:41 | 43.68231 | 41.68360 | 36110 ft | 408 kts | 268° |
| 2026-04-29 20:41 | 43.68297 | 41.60569 | 36106 ft | 407 kts | 269° |
| 2026-04-29 20:42 | 43.68359 | 41.52747 | 36103 ft | 408 kts | 269° |
| 2026-04-29 20:42 | 43.68416 | 41.44910 | 36099 ft | 408 kts | 269° |
| 2026-04-29 20:43 | 43.68468 | 41.37071 | 36096 ft | 408 kts | 269° |
| 2026-04-29 20:43 | 43.68514 | 41.29284 | 36095 ft | 407 kts | 268° |
| 2026-04-29 20:44 | 43.68556 | 41.21432 | 36094 ft | 407 kts | 269° |
| 2026-04-29 20:44 | 43.68591 | 41.13616 | 36094 ft | 408 kts | 269° |
| 2026-04-29 20:45 | 43.68621 | 41.05801 | 36093 ft | 406 kts | 269° |
| 2026-04-29 20:45 | 43.68646 | 40.98003 | 36093 ft | 407 kts | 269° |
| 2026-04-29 20:46 | 43.68652 | 40.90211 | 36084 ft | 406 kts | 268° |
| 2026-04-29 20:46 | 43.68147 | 40.82438 | 36081 ft | 406 kts | 262° |
| 2026-04-29 20:47 | 43.67290 | 40.74750 | 36076 ft | 407 kts | 261° |
| 2026-04-29 20:47 | 43.66414 | 40.67040 | 36080 ft | 406 kts | 261° |
| 2026-04-29 20:48 | 43.65566 | 40.59336 | 36081 ft | 407 kts | 261° |
| 2026-04-29 20:48 | 43.64732 | 40.51639 | 36086 ft | 406 kts | 262° |
| 2026-04-29 20:49 | 43.63900 | 40.43932 | 36088 ft | 406 kts | 262° |
| 2026-04-29 20:49 | 43.63065 | 40.36211 | 36089 ft | 406 kts | 262° |
| 2026-04-29 20:50 | 43.62233 | 40.28549 | 36092 ft | 407 kts | 261° |
| 2026-04-29 20:50 | 43.61384 | 40.20795 | 36106 ft | 406 kts | 261° |
| 2026-04-29 20:51 | 43.60536 | 40.13108 | 36130 ft | 404 kts | 262° |
| 2026-04-29 20:51 | 43.59684 | 40.05430 | 36141 ft | 404 kts | 262° |
| 2026-04-29 20:52 | 43.58832 | 39.97797 | 36155 ft | 405 kts | 261° |
| 2026-04-29 20:52 | 43.57970 | 39.90134 | 36161 ft | 406 kts | 262° |
| 2026-04-29 20:53 | 43.57095 | 39.82398 | 36159 ft | 405 kts | 262° |
| 2026-04-29 20:53 | 43.56519 | 39.74730 | 36163 ft | 406 kts | 271° |
| 2026-04-29 20:54 | 43.57635 | 39.67067 | 36165 ft | 407 kts | 289° |
| 2026-04-29 20:54 | 43.58763 | 39.63509 | 36161 ft | 410 kts | 293° |
| 2026-04-29 20:55 | 43.61414 | 39.56556 | 36161 ft | 411 kts | 296° |
| 2026-04-29 20:55 | 43.64196 | 39.49687 | 36167 ft | 409 kts | 297° |
| 2026-04-29 20:56 | 43.66947 | 39.42849 | 36162 ft | 409 kts | 296° |
| 2026-04-29 20:56 | 43.69684 | 39.35961 | 36158 ft | 409 kts | 296° |
| 2026-04-29 20:56 | 43.71041 | 39.32525 | 35994 ft | 403 kts | 296° |
| 2026-04-29 20:57 | 43.72384 | 39.29119 | 35630 ft | 398 kts | 296° |
| 2026-04-29 20:57 | 43.73686 | 39.25803 | 35094 ft | 399 kts | 296° |
| 2026-04-29 20:57 | 43.75019 | 39.22399 | 34459 ft | 401 kts | 296° |
| 2026-04-29 20:57 | 43.76336 | 39.19031 | 33813 ft | 404 kts | 296° |
| 2026-04-29 20:58 | 43.77663 | 39.15632 | 33113 ft | 407 kts | 296° |
| 2026-04-29 20:58 | 43.79007 | 39.12186 | 32388 ft | 410 kts | 296° |
| 2026-04-29 20:58 | 43.80352 | 39.08732 | 31791 ft | 408 kts | 295° |
| 2026-04-29 20:58 | 43.81690 | 39.05296 | 31241 ft | 406 kts | 295° |
| 2026-04-29 20:59 | 43.83024 | 39.01869 | 30645 ft | 403 kts | 295° |
| 2026-04-29 20:59 | 43.84330 | 38.98507 | 30057 ft | 399 kts | 295° |
| 2026-04-29 20:59 | 43.85632 | 38.95154 | 29497 ft | 394 kts | 295° |
| 2026-04-29 20:59 | 43.86915 | 38.91844 | 28955 ft | 389 kts | 295° |
| 2026-04-29 21:00 | 43.88189 | 38.88555 | 28417 ft | 384 kts | 295° |
| 2026-04-29 21:00 | 43.89434 | 38.85334 | 27888 ft | 380 kts | 295° |
| 2026-04-29 21:00 | 43.90668 | 38.82136 | 27366 ft | 375 kts | 295° |
| 2026-04-29 21:00 | 43.91894 | 38.78981 | 26812 ft | 372 kts | 296° |
| 2026-04-29 21:01 | 43.93241 | 38.75951 | 26254 ft | 370 kts | 302° |
| 2026-04-29 21:01 | 43.94964 | 38.73266 | 25699 ft | 372 kts | 314° |
| 2026-04-29 21:01 | 43.97022 | 38.71148 | 25083 ft | 375 kts | 323° |
| 2026-04-29 21:01 | 43.99268 | 38.69301 | 24541 ft | 373 kts | 326° |
| 2026-04-29 21:02 | 44.01535 | 38.67582 | 24018 ft | 370 kts | 327° |
| 2026-04-29 21:02 | 44.03782 | 38.65920 | 23499 ft | 367 kts | 327° |
| 2026-04-29 21:02 | 44.06017 | 38.64267 | 22994 ft | 363 kts | 327° |
| 2026-04-29 21:02 | 44.08241 | 38.62608 | 22484 ft | 360 kts | 327° |
| 2026-04-29 21:03 | 44.10413 | 38.60972 | 21971 ft | 357 kts | 327° |
| 2026-04-29 21:03 | 44.12502 | 38.59389 | 21498 ft | 353 kts | 327° |
| 2026-04-29 21:03 | 44.14629 | 38.57771 | 21000 ft | 351 kts | 327° |
| 2026-04-29 21:03 | 44.16752 | 38.56150 | 20501 ft | 348 kts | 327° |
| 2026-04-29 21:04 | 44.18872 | 38.54527 | 20010 ft | 346 kts | 327° |
| 2026-04-29 21:04 | 44.20960 | 38.52926 | 19503 ft | 344 kts | 327° |
| 2026-04-29 21:04 | 44.23056 | 38.51316 | 19021 ft | 342 kts | 327° |
| 2026-04-29 21:04 | 44.25145 | 38.49707 | 18628 ft | 347 kts | 327° |
| 2026-04-29 21:05 | 44.27257 | 38.48077 | 18144 ft | 348 kts | 327° |
| 2026-04-29 21:05 | 44.29347 | 38.46468 | 17632 ft | 346 kts | 328° |
| 2026-04-29 21:05 | 44.31462 | 38.44839 | 17134 ft | 343 kts | 328° |
| 2026-04-29 21:05 | 44.33575 | 38.43406 | 16622 ft | 343 kts | 336° |
| 2026-04-29 21:06 | 44.35914 | 38.42684 | 16115 ft | 347 kts | 355° |
| 2026-04-29 21:06 | 44.38305 | 38.43139 | 15612 ft | 351 kts | 15° |
| 2026-04-29 21:06 | 44.40526 | 38.44568 | 15113 ft | 353 kts | 28° |
| 2026-04-29 21:06 | 44.42604 | 38.46413 | 14585 ft | 352 kts | 32° |
| 2026-04-29 21:07 | 44.44599 | 38.48321 | 14065 ft | 351 kts | 33° |
| 2026-04-29 21:07 | 44.46599 | 38.50272 | 13532 ft | 350 kts | 34° |
| 2026-04-29 21:07 | 44.48593 | 38.52217 | 13006 ft | 349 kts | 34° |
| 2026-04-29 21:07 | 44.50588 | 38.54154 | 12478 ft | 347 kts | 33° |
| 2026-04-29 21:08 | 44.52552 | 38.56051 | 11966 ft | 345 kts | 33° |
| 2026-04-29 21:08 | 44.54521 | 38.57948 | 11451 ft | 343 kts | 33° |
| 2026-04-29 21:08 | 44.56494 | 38.59846 | 10938 ft | 341 kts | 34° |
| 2026-04-29 21:08 | 44.58423 | 38.61703 | 10593 ft | 334 kts | 34° |
| 2026-04-29 21:09 | 44.60310 | 38.63522 | 10435 ft | 321 kts | 34° |
| 2026-04-29 21:09 | 44.62117 | 38.65265 | 10325 ft | 308 kts | 34° |
| 2026-04-29 21:09 | 44.63840 | 38.66930 | 10092 ft | 301 kts | 34° |
| 2026-04-29 21:09 | 44.65568 | 38.68599 | 9691 ft | 300 kts | 34° |
| 2026-04-29 21:10 | 44.67261 | 38.70233 | 9330 ft | 297 kts | 34° |
| 2026-04-29 21:10 | 44.68961 | 38.71877 | 8958 ft | 295 kts | 34° |
| 2026-04-29 21:10 | 44.70643 | 38.73505 | 8602 ft | 292 kts | 34° |
| 2026-04-29 21:10 | 44.72317 | 38.75126 | 8244 ft | 290 kts | 34° |
| 2026-04-29 21:11 | 44.73954 | 38.76713 | 7889 ft | 287 kts | 34° |
| 2026-04-29 21:11 | 44.75584 | 38.78295 | 7541 ft | 285 kts | 34° |
| 2026-04-29 21:11 | 44.77245 | 38.79854 | 7212 ft | 281 kts | 30° |
| 2026-04-29 21:11 | 44.78948 | 38.81058 | 7096 ft | 270 kts | 24° |
| 2026-04-29 21:12 | 44.80646 | 38.82040 | 7007 ft | 259 kts | 21° |
| 2026-04-29 21:12 | 44.82285 | 38.82937 | 6897 ft | 249 kts | 21° |
| 2026-04-29 21:12 | 44.83880 | 38.83855 | 6726 ft | 243 kts | 26° |
| 2026-04-29 21:12 | 44.85264 | 38.85151 | 6367 ft | 241 kts | 45° |
| 2026-04-29 21:13 | 44.86277 | 38.86955 | 5874 ft | 227 kts | 56° |
| 2026-04-29 21:13 | 44.87137 | 38.88748 | 5380 ft | 214 kts | 56° |
| 2026-04-29 21:13 | 44.87981 | 38.90400 | 4931 ft | 205 kts | 53° |
| 2026-04-29 21:13 | 44.88792 | 38.91977 | 4484 ft | 195 kts | 54° |
| 2026-04-29 21:14 | 44.89573 | 38.93477 | 4065 ft | 187 kts | 53° |
| 2026-04-29 21:14 | 44.90344 | 38.94902 | 3801 ft | 174 kts | 52° |
| 2026-04-29 21:14 | 44.91050 | 38.96187 | 3629 ft | 159 kts | 52° |
| 2026-04-29 21:14 | 44.91716 | 38.97398 | 3389 ft | 155 kts | 52° |
| 2026-04-29 21:15 | 44.92368 | 38.98588 | 3203 ft | 152 kts | 52° |
| 2026-04-29 21:15 | 44.93021 | 38.99778 | 3002 ft | 151 kts | 51° |
| 2026-04-29 21:15 | 44.93656 | 39.00936 | 2813 ft | 150 kts | 51° |
| 2026-04-29 21:15 | 44.94302 | 39.02114 | 2616 ft | 149 kts | 51° |
| 2026-04-29 21:16 | 44.94932 | 39.03264 | 2430 ft | 149 kts | 51° |
| 2026-04-29 21:16 | 44.95557 | 39.04405 | 2243 ft | 147 kts | 51° |
| 2026-04-29 21:16 | 44.96181 | 39.05547 | 2057 ft | 146 kts | 52° |
| 2026-04-29 21:16 | 44.96802 | 39.06681 | 1873 ft | 145 kts | 52° |
| 2026-04-29 21:17 | 44.97619 | 39.08175 | 1631 ft | 145 kts | 51° |
| 2026-04-29 21:17 | 44.98031 | 39.08928 | 1508 ft | 145 kts | 51° |
| 2026-04-29 21:17 | 44.98647 | 39.10054 | 1326 ft | 145 kts | 51° |
| 2026-04-29 21:17 | 44.99263 | 39.11183 | 1147 ft | 145 kts | 51° |
| 2026-04-29 21:18 | 44.99882 | 39.12315 | 963 ft | 144 kts | 51° |
| 2026-04-29 21:18 | 45.00503 | 39.13426 | 755 ft | 144 kts | 51° |
| 2026-04-29 21:18 | 45.01110 | 39.14551 | 570 ft | 143 kts | 52° |
| 2026-04-29 21:18 | 45.01696 | 39.15667 | 414 ft | 142 kts | 51° |
| 2026-04-29 21:19 | 45.02316 | 39.16777 | 245 ft | 144 kts | 50° |
| 2026-04-29 21:19 | 45.02929 | 39.17896 | 129 ft | 141 kts | 51° |
| 2026-04-29 21:19 | 45.03411 | 39.18785 | 127 ft | 81 kts | 51° |
| 2026-04-29 21:19 | 45.03635 | 39.19205 | 127 ft | 33 kts | 52° |
| 2026-04-29 21:20 | 45.03790 | 39.19485 | 127 ft | 35 kts | 51° |
| 2026-04-29 21:20 | 45.03936 | 39.19753 | 127 ft | 34 kts | 52° |
| 2026-04-29 21:20 | 45.04077 | 39.20012 | 127 ft | 32 kts | 52° |
| 2026-04-29 21:20 | 45.04184 | 39.20208 | 127 ft | 19 kts | 52° |
| 2026-04-29 21:21 | 45.04253 | 39.20284 | 126 ft | 11 kts | 2° |
| 2026-04-29 21:21 | 45.04319 | 39.20231 | 126 ft | 11 kts | 307° |
| 2026-04-29 21:21 | 45.04335 | 39.20129 | 127 ft | 10 kts | 258° |
| 2026-04-29 21:21 | 45.04298 | 39.20039 | 126 ft | 10 kts | 232° |
| 2026-04-29 21:22 | 45.04254 | 39.19958 | 127 ft | 10 kts | 233° |
| 2026-04-29 21:22 | 45.04199 | 39.19855 | 127 ft | 16 kts | 233° |
| 2026-04-29 21:22 | 45.04120 | 39.19708 | 127 ft | 21 kts | 232° |
| 2026-04-29 21:22 | 45.04017 | 39.19519 | 127 ft | 26 kts | 231° |
| 2026-04-29 21:23 | 45.03905 | 39.19317 | 127 ft | 25 kts | 233° |
| 2026-04-29 21:23 | 45.03799 | 39.19116 | 127 ft | 25 kts | 232° |
| 2026-04-29 21:23 | 45.03693 | 39.18919 | 127 ft | 24 kts | 233° |
| 2026-04-29 21:23 | 45.03589 | 39.18729 | 127 ft | 24 kts | 232° |
| 2026-04-29 21:24 | 45.03489 | 39.18543 | 127 ft | 23 kts | 233° |
| 2026-04-29 21:24 | 45.03388 | 39.18357 | 127 ft | 23 kts | 232° |
| 2026-04-29 21:24 | 45.03290 | 39.18179 | 126 ft | 22 kts | 232° |
| 2026-04-29 21:24 | 45.03194 | 39.18003 | 126 ft | 22 kts | 233° |
| 2026-04-29 21:25 | 45.03101 | 39.17831 | 127 ft | 21 kts | 232° |
| 2026-04-29 21:25 | 45.03010 | 39.17660 | 127 ft | 21 kts | 233° |
| 2026-04-29 21:25 | 45.02918 | 39.17495 | 127 ft | 21 kts | 231° |
| 2026-04-29 21:25 | 45.02829 | 39.17332 | 127 ft | 20 kts | 234° |
| 2026-04-29 21:26 | 45.02861 | 39.17169 | 127 ft | 19 kts | 323° |
| 2026-04-29 21:26 | 45.02982 | 39.17039 | 127 ft | 24 kts | 322° |
| 2026-04-29 21:26 | 45.03128 | 39.16882 | 127 ft | 26 kts | 322° |
| 2026-04-29 21:26 | 45.03272 | 39.16725 | 127 ft | 25 kts | 322° |
| 2026-04-29 21:27 | 45.03412 | 39.16575 | 127 ft | 25 kts | 322° |
| 2026-04-29 21:27 | 45.03551 | 39.16427 | 127 ft | 24 kts | 322° |
| 2026-04-29 21:27 | 45.03685 | 39.16282 | 127 ft | 24 kts | 322° |
| 2026-04-29 21:27 | 45.03812 | 39.16134 | 127 ft | 23 kts | 301° |
| 2026-04-29 21:28 | 45.03845 | 39.15915 | 127 ft | 22 kts | 279° |
| 2026-04-29 21:28 | 45.03858 | 39.15698 | 127 ft | 22 kts | 252° |
| 2026-04-29 21:28 | 45.03788 | 39.15508 | 127 ft | 21 kts | 240° |
| 2026-04-29 21:28 | 45.03715 | 39.15322 | 127 ft | 21 kts | 244° |
| 2026-04-29 21:29 | 45.03770 | 39.15167 | 127 ft | 19 kts | 321° |
| 2026-04-29 21:29 | 45.03756 | 39.15003 | 127 ft | 18 kts | 239° |
| 2026-04-29 21:29 | 45.03693 | 39.14843 | 127 ft | 18 kts | 242° |
| 2026-04-29 21:29 | 45.03631 | 39.14685 | 127 ft | 18 kts | 240° |
| 2026-04-29 21:30 | 45.03572 | 39.14533 | 127 ft | 17 kts | 242° |
| 2026-04-29 21:30 | 45.03515 | 39.14381 | 127 ft | 17 kts | 243° |
| 2026-04-29 21:30 | 45.03457 | 39.14234 | 127 ft | 17 kts | 240° |
| 2026-04-29 21:30 | 45.03399 | 39.14097 | 127 ft | 12 kts | 238° |
| 2026-04-29 21:31 | 45.03331 | 39.14051 | 127 ft | 7 kts | 169° |
| 2026-04-29 21:31 | 45.03305 | 39.14097 | 127 ft | 6 kts | 81° |
| 2026-04-29 21:31 | 45.03337 | 39.14124 | 127 ft | 5 kts | 345° |
| 2026-04-29 21:31 | 45.03359 | 39.14110 | 127 ft | 0 kts | 332° |